sensor_id;sensor_type;location;lat;lon;timestamp;temperature;humidity
39103;DHT22;24847;48.218;16.414;2024-01-15T00:03:11;-0.20;71.30
39103;DHT22;24847;48.218;16.414;2024-01-15T00:08:13;-0.20;71.50
39103;DHT22;24847;48.218;16.414;2024-01-15T00:13:16;-0.10;73.20
39103;DHT22;24847;48.218;16.414;2024-01-15T00:18:18;-0.10;75.00
39103;DHT22;24847;48.218;16.414;2024-01-15T00:23:21;-0.30;77.60
39103;DHT22;24847;48.218;16.414;2024-01-15T00:28:24;-0.40;76.50
39103;DHT22;24847;48.218;16.414;2024-01-15T00:33:26;-0.50;76.50
39103;DHT22;24847;48.218;16.414;2024-01-15T00:38:28;-0.40;74.80
39103;DHT22;24847;48.218;16.414;2024-01-15T00:43:32;-0.30;74.80
39103;DHT22;24847;48.218;16.414;2024-01-15T00:48:34;-0.50;75.10
39103;DHT22;24847;48.218;16.414;2024-01-15T00:53:36;-0.60;76.40
39103;DHT22;24847;48.218;16.414;2024-01-15T00:58:40;-0.40;76.20
39103;DHT22;24847;48.218;16.414;2024-01-15T01:03:42;-0.60;76.50
39103;DHT22;24847;48.218;16.414;2024-01-15T01:08:44;-0.80;76.60
39103;DHT22;24847;48.218;16.414;2024-01-15T01:13:47;-0.70;76.30
39103;DHT22;24847;48.218;16.414;2024-01-15T01:18:50;-0.50;75.20
39103;DHT22;24847;48.218;16.414;2024-01-15T01:23:52;-0.60;75.40
39103;DHT22;24847;48.218;16.414;2024-01-15T01:28:55;-0.40;74.70
39103;DHT22;24847;48.218;16.414;2024-01-15T01:33:58;-0.30;73.60
39103;DHT22;24847;48.218;16.414;2024-01-15T01:39:00;-0.30;73.70
39103;DHT22;24847;48.218;16.414;2024-01-15T01:44:04;-0.40;75.10
39103;DHT22;24847;48.218;16.414;2024-01-15T01:49:07;-0.50;76.60
39103;DHT22;24847;48.218;16.414;2024-01-15T01:54:09;-0.40;75.90
39103;DHT22;24847;48.218;16.414;2024-01-15T01:59:15;-0.30;75.50
39103;DHT22;24847;48.218;16.414;2024-01-15T02:04:18;-0.20;75.10
39103;DHT22;24847;48.218;16.414;2024-01-15T02:09:21;-0.10;73.90
39103;DHT22;24847;48.218;16.414;2024-01-15T02:14:25;-0.20;74.00
39103;DHT22;24847;48.218;16.414;2024-01-15T02:19:27;-0.20;75.50
39103;DHT22;24847;48.218;16.414;2024-01-15T02:24:30;-0.40;77.00
39103;DHT22;24847;48.218;16.414;2024-01-15T02:29:33;-0.30;76.50
39103;DHT22;24847;48.218;16.414;2024-01-15T02:34:35;-0.10;73.90
39103;DHT22;24847;48.218;16.414;2024-01-15T02:39:39;0.00;71.30
39103;DHT22;24847;48.218;16.414;2024-01-15T02:44:41;0.20;69.20
39103;DHT22;24847;48.218;16.414;2024-01-15T02:49:43;0.20;67.60
39103;DHT22;24847;48.218;16.414;2024-01-15T02:54:47;0.30;67.50
39103;DHT22;24847;48.218;16.414;2024-01-15T02:59:49;0.30;66.80
39103;DHT22;24847;48.218;16.414;2024-01-15T03:04:51;0.60;66.00
39103;DHT22;24847;48.218;16.414;2024-01-15T03:09:55;0.50;65.70
39103;DHT22;24847;48.218;16.414;2024-01-15T03:14:57;0.50;65.30
39103;DHT22;24847;48.218;16.414;2024-01-15T03:20:00;0.50;66.40
39103;DHT22;24847;48.218;16.414;2024-01-15T03:25:05;0.50;65.40
39103;DHT22;24847;48.218;16.414;2024-01-15T03:30:08;0.50;65.40
39103;DHT22;24847;48.218;16.414;2024-01-15T03:35:11;0.60;65.40
39103;DHT22;24847;48.218;16.414;2024-01-15T03:40:16;0.70;65.20
39103;DHT22;24847;48.218;16.414;2024-01-15T03:45:19;0.60;65.70
39103;DHT22;24847;48.218;16.414;2024-01-15T03:50:21;0.70;65.60
39103;DHT22;24847;48.218;16.414;2024-01-15T03:55:24;0.70;65.70
39103;DHT22;24847;48.218;16.414;2024-01-15T04:00:27;0.50;66.20
39103;DHT22;24847;48.218;16.414;2024-01-15T04:05:30;0.40;66.60
39103;DHT22;24847;48.218;16.414;2024-01-15T04:10:34;0.50;66.50
39103;DHT22;24847;48.218;16.414;2024-01-15T04:15:36;0.50;66.50
39103;DHT22;24847;48.218;16.414;2024-01-15T04:20:38;0.50;66.40
39103;DHT22;24847;48.218;16.414;2024-01-15T04:25:42;0.60;66.20
39103;DHT22;24847;48.218;16.414;2024-01-15T04:30:44;0.50;66.90
39103;DHT22;24847;48.218;16.414;2024-01-15T04:35:46;0.50;66.90
39103;DHT22;24847;48.218;16.414;2024-01-15T04:40:50;0.50;67.40
39103;DHT22;24847;48.218;16.414;2024-01-15T04:45:52;0.60;67.40
39103;DHT22;24847;48.218;16.414;2024-01-15T04:50:54;0.50;67.90
39103;DHT22;24847;48.218;16.414;2024-01-15T04:55:57;0.40;68.30
39103;DHT22;24847;48.218;16.414;2024-01-15T05:00:59;0.50;68.00
39103;DHT22;24847;48.218;16.414;2024-01-15T05:06:01;0.40;68.30
39103;DHT22;24847;48.218;16.414;2024-01-15T05:11:05;0.30;68.70
39103;DHT22;24847;48.218;16.414;2024-01-15T05:16:08;0.20;68.90
39103;DHT22;24847;48.218;16.414;2024-01-15T05:21:10;0.20;68.80
39103;DHT22;24847;48.218;16.414;2024-01-15T05:26:14;0.10;68.30
39103;DHT22;24847;48.218;16.414;2024-01-15T05:31:16;0.10;68.00
39103;DHT22;24847;48.218;16.414;2024-01-15T05:36:18;0.30;67.20
39103;DHT22;24847;48.218;16.414;2024-01-15T05:41:22;0.20;67.20
39103;DHT22;24847;48.218;16.414;2024-01-15T05:46:24;0.10;67.00
39103;DHT22;24847;48.218;16.414;2024-01-15T05:51:26;0.10;67.10
39103;DHT22;24847;48.218;16.414;2024-01-15T05:56:30;0.10;66.90
39103;DHT22;24847;48.218;16.414;2024-01-15T06:01:32;0.20;66.80
39103;DHT22;24847;48.218;16.414;2024-01-15T06:06:34;0.20;66.80
39103;DHT22;24847;48.218;16.414;2024-01-15T06:11:37;0.20;66.70
39103;DHT22;24847;48.218;16.414;2024-01-15T06:16:39;0.10;67.00
39103;DHT22;24847;48.218;16.414;2024-01-15T06:21:41;0.20;67.10
39103;DHT22;24847;48.218;16.414;2024-01-15T06:26:46;0.20;67.50
39103;DHT22;24847;48.218;16.414;2024-01-15T06:31:48;0.20;68.00
39103;DHT22;24847;48.218;16.414;2024-01-15T06:36:50;0.20;68.30
39103;DHT22;24847;48.218;16.414;2024-01-15T06:41:54;0.30;68.50
39103;DHT22;24847;48.218;16.414;2024-01-15T06:46:57;0.20;68.70
39103;DHT22;24847;48.218;16.414;2024-01-15T06:52:03;0.10;69.10
39103;DHT22;24847;48.218;16.414;2024-01-15T06:57:07;0.10;69.40
39103;DHT22;24847;48.218;16.414;2024-01-15T07:02:09;0.10;69.30
39103;DHT22;24847;48.218;16.414;2024-01-15T07:07:11;0.00;69.30
39103;DHT22;24847;48.218;16.414;2024-01-15T07:12:17;0.10;69.30
39103;DHT22;24847;48.218;16.414;2024-01-15T07:17:19;0.10;69.10
39103;DHT22;24847;48.218;16.414;2024-01-15T07:22:21;0.10;68.70
39103;DHT22;24847;48.218;16.414;2024-01-15T07:27:25;0.10;68.20
39103;DHT22;24847;48.218;16.414;2024-01-15T07:32:27;0.20;67.70
39103;DHT22;24847;48.218;16.414;2024-01-15T07:37:29;0.20;67.50
39103;DHT22;24847;48.218;16.414;2024-01-15T07:42:33;0.40;66.80
39103;DHT22;24847;48.218;16.414;2024-01-15T07:47:35;0.30;67.20
39103;DHT22;24847;48.218;16.414;2024-01-15T07:52:38;0.50;67.10
39103;DHT22;24847;48.218;16.414;2024-01-15T07:57:43;0.50;67.20
39103;DHT22;24847;48.218;16.414;2024-01-15T08:02:46;0.60;66.80
39103;DHT22;24847;48.218;16.414;2024-01-15T08:07:48;0.50;66.80
39103;DHT22;24847;48.218;16.414;2024-01-15T08:12:52;0.60;66.90
39103;DHT22;24847;48.218;16.414;2024-01-15T08:17:55;0.70;66.80
39103;DHT22;24847;48.218;16.414;2024-01-15T08:22:57;0.60;66.90
39103;DHT22;24847;48.218;16.414;2024-01-15T08:28:01;0.80;66.80
39103;DHT22;24847;48.218;16.414;2024-01-15T08:33:03;0.80;66.50
39103;DHT22;24847;48.218;16.414;2024-01-15T08:38:06;0.90;66.60
39103;DHT22;24847;48.218;16.414;2024-01-15T08:43:10;1.00;66.10
39103;DHT22;24847;48.218;16.414;2024-01-15T08:48:12;1.00;65.70
39103;DHT22;24847;48.218;16.414;2024-01-15T08:53:14;1.20;65.60
39103;DHT22;24847;48.218;16.414;2024-01-15T08:58:19;1.40;64.60
39103;DHT22;24847;48.218;16.414;2024-01-15T09:03:21;1.40;65.00
39103;DHT22;24847;48.218;16.414;2024-01-15T09:08:24;1.60;64.10
39103;DHT22;24847;48.218;16.414;2024-01-15T09:13:29;1.60;64.20
39103;DHT22;24847;48.218;16.414;2024-01-15T09:18:35;1.50;64.50
39103;DHT22;24847;48.218;16.414;2024-01-15T09:23:38;1.20;65.40
39103;DHT22;24847;48.218;16.414;2024-01-15T09:28:42;1.40;64.80
39103;DHT22;24847;48.218;16.414;2024-01-15T09:33:44;1.10;65.80
39103;DHT22;24847;48.218;16.414;2024-01-15T09:38:47;1.20;65.50
39103;DHT22;24847;48.218;16.414;2024-01-15T09:43:51;1.10;66.10
39103;DHT22;24847;48.218;16.414;2024-01-15T09:48:53;1.20;66.60
39103;DHT22;24847;48.218;16.414;2024-01-15T09:53:56;1.30;66.10
39103;DHT22;24847;48.218;16.414;2024-01-15T09:59:00;1.40;66.00
39103;DHT22;24847;48.218;16.414;2024-01-15T10:04:04;1.60;65.90
39103;DHT22;24847;48.218;16.414;2024-01-15T10:09:06;1.60;66.20
39103;DHT22;24847;48.218;16.414;2024-01-15T10:14:11;1.60;65.80
39103;DHT22;24847;48.218;16.414;2024-01-15T10:19:14;1.50;66.30
39103;DHT22;24847;48.218;16.414;2024-01-15T10:24:17;1.80;66.00
39103;DHT22;24847;48.218;16.414;2024-01-15T10:29:20;1.70;66.20
39103;DHT22;24847;48.218;16.414;2024-01-15T10:34:22;1.70;66.50
39103;DHT22;24847;48.218;16.414;2024-01-15T10:39:25;1.90;66.00
39103;DHT22;24847;48.218;16.414;2024-01-15T10:44:29;1.80;66.50
39103;DHT22;24847;48.218;16.414;2024-01-15T10:49:31;1.90;66.10
39103;DHT22;24847;48.218;16.414;2024-01-15T10:54:34;1.90;65.80
39103;DHT22;24847;48.218;16.414;2024-01-15T10:59:38;2.10;65.20
39103;DHT22;24847;48.218;16.414;2024-01-15T11:04:40;2.30;64.60
39103;DHT22;24847;48.218;16.414;2024-01-15T11:09:43;2.50;63.20
39103;DHT22;24847;48.218;16.414;2024-01-15T11:14:47;2.80;62.50
39103;DHT22;24847;48.218;16.414;2024-01-15T11:19:50;2.60;63.10
39103;DHT22;24847;48.218;16.414;2024-01-15T11:24:55;2.80;62.70
39103;DHT22;24847;48.218;16.414;2024-01-15T11:30:06;2.90;61.70
39103;DHT22;24847;48.218;16.414;2024-01-15T11:35:11;2.80;62.30
39103;DHT22;24847;48.218;16.414;2024-01-15T11:40:17;2.90;61.90
39103;DHT22;24847;48.218;16.414;2024-01-15T11:45:21;3.40;61.00
39103;DHT22;24847;48.218;16.414;2024-01-15T11:50:24;3.30;61.30
39103;DHT22;24847;48.218;16.414;2024-01-15T11:55:33;3.30;60.80
39103;DHT22;24847;48.218;16.414;2024-01-15T12:00:42;3.60;60.80
39103;DHT22;24847;48.218;16.414;2024-01-15T12:05:45;3.60;60.80
39103;DHT22;24847;48.218;16.414;2024-01-15T12:10:47;3.60;60.80
39103;DHT22;24847;48.218;16.414;2024-01-15T12:15:51;3.70;60.40
39103;DHT22;24847;48.218;16.414;2024-01-15T12:20:54;3.30;60.60
39103;DHT22;24847;48.218;16.414;2024-01-15T12:25:56;3.10;62.10
39103;DHT22;24847;48.218;16.414;2024-01-15T12:31:00;3.20;61.90
39103;DHT22;24847;48.218;16.414;2024-01-15T12:36:06;3.30;61.60
39103;DHT22;24847;48.218;16.414;2024-01-15T12:41:08;3.30;60.00
39103;DHT22;24847;48.218;16.414;2024-01-15T12:46:12;3.40;59.90
39103;DHT22;24847;48.218;16.414;2024-01-15T12:51:15;3.20;61.00
39103;DHT22;24847;48.218;16.414;2024-01-15T12:56:17;3.20;61.50
39103;DHT22;24847;48.218;16.414;2024-01-15T13:01:20;3.20;61.50
39103;DHT22;24847;48.218;16.414;2024-01-15T13:06:23;3.10;61.70
39103;DHT22;24847;48.218;16.414;2024-01-15T13:11:25;3.30;61.50
39103;DHT22;24847;48.218;16.414;2024-01-15T13:16:29;3.10;61.70
39103;DHT22;24847;48.218;16.414;2024-01-15T13:21:31;3.10;62.00
39103;DHT22;24847;48.218;16.414;2024-01-15T13:26:34;2.90;62.80
39103;DHT22;24847;48.218;16.414;2024-01-15T13:31:38;2.90;62.40
39103;DHT22;24847;48.218;16.414;2024-01-15T13:36:40;3.10;61.40
39103;DHT22;24847;48.218;16.414;2024-01-15T13:41:43;3.20;60.30
39103;DHT22;24847;48.218;16.414;2024-01-15T13:46:47;3.10;59.90
39103;DHT22;24847;48.218;16.414;2024-01-15T13:51:49;3.20;59.30
39103;DHT22;24847;48.218;16.414;2024-01-15T13:56:51;3.00;59.20
39103;DHT22;24847;48.218;16.414;2024-01-15T14:01:55;3.10;59.30
39103;DHT22;24847;48.218;16.414;2024-01-15T14:06:58;2.90;59.70
39103;DHT22;24847;48.218;16.414;2024-01-15T14:12:00;2.80;59.90
39103;DHT22;24847;48.218;16.414;2024-01-15T14:17:04;2.80;59.90
39103;DHT22;24847;48.218;16.414;2024-01-15T14:22:06;2.70;59.70
39103;DHT22;24847;48.218;16.414;2024-01-15T14:27:08;2.80;59.80
39103;DHT22;24847;48.218;16.414;2024-01-15T14:32:12;2.80;60.10
39103;DHT22;24847;48.218;16.414;2024-01-15T14:37:15;2.60;59.50
39103;DHT22;24847;48.218;16.414;2024-01-15T14:42:17;2.60;59.60
39103;DHT22;24847;48.218;16.414;2024-01-15T14:47:20;2.50;60.30
39103;DHT22;24847;48.218;16.414;2024-01-15T14:52:31;2.50;60.40
39103;DHT22;24847;48.218;16.414;2024-01-15T14:57:34;2.40;61.00
39103;DHT22;24847;48.218;16.414;2024-01-15T15:02:37;2.40;62.10
39103;DHT22;24847;48.218;16.414;2024-01-15T15:07:39;2.30;61.60
39103;DHT22;24847;48.218;16.414;2024-01-15T15:12:42;2.30;61.80
39103;DHT22;24847;48.218;16.414;2024-01-15T15:17:46;2.20;62.60
39103;DHT22;24847;48.218;16.414;2024-01-15T15:22:48;2.00;63.30
39103;DHT22;24847;48.218;16.414;2024-01-15T15:27:52;1.90;63.30
39103;DHT22;24847;48.218;16.414;2024-01-15T15:32:56;2.10;62.80
39103;DHT22;24847;48.218;16.414;2024-01-15T15:37:58;2.30;62.70
39103;DHT22;24847;48.218;16.414;2024-01-15T15:43:00;2.10;62.70
39103;DHT22;24847;48.218;16.414;2024-01-15T15:48:04;2.20;62.70
39103;DHT22;24847;48.218;16.414;2024-01-15T15:53:07;2.10;62.70
39103;DHT22;24847;48.218;16.414;2024-01-15T15:58:09;2.10;62.40
39103;DHT22;24847;48.218;16.414;2024-01-15T16:03:13;2.00;62.70
39103;DHT22;24847;48.218;16.414;2024-01-15T16:08:15;2.00;62.60
39103;DHT22;24847;48.218;16.414;2024-01-15T16:13:17;2.00;62.60
39103;DHT22;24847;48.218;16.414;2024-01-15T16:18:21;2.10;62.50
39103;DHT22;24847;48.218;16.414;2024-01-15T16:23:23;2.10;62.40
39103;DHT22;24847;48.218;16.414;2024-01-15T16:28:25;2.00;62.40
39103;DHT22;24847;48.218;16.414;2024-01-15T16:33:28;2.00;62.30
39103;DHT22;24847;48.218;16.414;2024-01-15T16:38:31;1.90;62.50
39103;DHT22;24847;48.218;16.414;2024-01-15T16:43:33;2.00;62.70
39103;DHT22;24847;48.218;16.414;2024-01-15T16:48:36;1.90;62.60
39103;DHT22;24847;48.218;16.414;2024-01-15T16:53:39;1.90;62.80
39103;DHT22;24847;48.218;16.414;2024-01-15T16:58:41;2.00;62.30
39103;DHT22;24847;48.218;16.414;2024-01-15T17:03:45;2.00;62.30
39103;DHT22;24847;48.218;16.414;2024-01-15T17:08:47;1.80;62.50
39103;DHT22;24847;48.218;16.414;2024-01-15T17:13:49;1.90;62.50
39103;DHT22;24847;48.218;16.414;2024-01-15T17:18:53;1.90;62.60
39103;DHT22;24847;48.218;16.414;2024-01-15T17:23:55;1.90;63.00
39103;DHT22;24847;48.218;16.414;2024-01-15T17:28:58;2.00;62.60
39103;DHT22;24847;48.218;16.414;2024-01-15T17:34:01;2.10;62.60
39103;DHT22;24847;48.218;16.414;2024-01-15T17:39:04;2.00;63.00
39103;DHT22;24847;48.218;16.414;2024-01-15T17:44:07;1.90;64.00
39103;DHT22;24847;48.218;16.414;2024-01-15T17:49:11;2.00;63.10
39103;DHT22;24847;48.218;16.414;2024-01-15T17:54:13;1.90;63.30
39103;DHT22;24847;48.218;16.414;2024-01-15T17:59:15;1.90;63.60
39103;DHT22;24847;48.218;16.414;2024-01-15T18:04:19;2.00;63.50
39103;DHT22;24847;48.218;16.414;2024-01-15T18:09:21;1.90;63.40
39103;DHT22;24847;48.218;16.414;2024-01-15T18:14:23;1.90;63.70
39103;DHT22;24847;48.218;16.414;2024-01-15T18:19:27;1.90;64.10
39103;DHT22;24847;48.218;16.414;2024-01-15T18:24:29;1.80;64.40
39103;DHT22;24847;48.218;16.414;2024-01-15T18:29:34;1.90;64.30
39103;DHT22;24847;48.218;16.414;2024-01-15T18:34:38;1.80;64.80
39103;DHT22;24847;48.218;16.414;2024-01-15T18:39:42;1.80;65.60
39103;DHT22;24847;48.218;16.414;2024-01-15T18:44:44;1.80;66.00
39103;DHT22;24847;48.218;16.414;2024-01-15T18:49:48;1.70;66.80
39103;DHT22;24847;48.218;16.414;2024-01-15T18:54:50;1.80;67.70
39103;DHT22;24847;48.218;16.414;2024-01-15T18:59:52;1.80;68.10
39103;DHT22;24847;48.218;16.414;2024-01-15T19:04:56;1.80;68.30
39103;DHT22;24847;48.218;16.414;2024-01-15T19:09:58;1.90;69.40
39103;DHT22;24847;48.218;16.414;2024-01-15T19:15:00;1.70;71.40
39103;DHT22;24847;48.218;16.414;2024-01-15T19:20:04;1.80;71.10
39103;DHT22;24847;48.218;16.414;2024-01-15T19:25:08;1.90;71.10
39103;DHT22;24847;48.218;16.414;2024-01-15T19:30:13;1.80;71.00
39103;DHT22;24847;48.218;16.414;2024-01-15T19:35:18;1.90;71.70
39103;DHT22;24847;48.218;16.414;2024-01-15T19:40:20;1.90;71.10
39103;DHT22;24847;48.218;16.414;2024-01-15T19:45:22;1.90;71.10
39103;DHT22;24847;48.218;16.414;2024-01-15T19:50:26;1.90;70.90
39103;DHT22;24847;48.218;16.414;2024-01-15T19:55:28;1.90;71.40
39103;DHT22;24847;48.218;16.414;2024-01-15T20:00:30;1.90;71.50
39103;DHT22;24847;48.218;16.414;2024-01-15T20:05:34;1.80;72.00
39103;DHT22;24847;48.218;16.414;2024-01-15T20:10:36;2.00;71.80
39103;DHT22;24847;48.218;16.414;2024-01-15T20:15:39;1.80;72.40
39103;DHT22;24847;48.218;16.414;2024-01-15T20:20:43;2.00;72.20
39103;DHT22;24847;48.218;16.414;2024-01-15T20:25:45;1.90;72.50
39103;DHT22;24847;48.218;16.414;2024-01-15T20:30:47;1.90;73.20
39103;DHT22;24847;48.218;16.414;2024-01-15T20:35:51;1.90;73.00
39103;DHT22;24847;48.218;16.414;2024-01-15T20:40:54;1.90;72.80
39103;DHT22;24847;48.218;16.414;2024-01-15T20:45:58;1.90;73.10
39103;DHT22;24847;48.218;16.414;2024-01-15T20:51:02;1.90;72.90
39103;DHT22;24847;48.218;16.414;2024-01-15T20:56:04;1.90;72.80
39103;DHT22;24847;48.218;16.414;2024-01-15T21:01:07;1.80;72.90
39103;DHT22;24847;48.218;16.414;2024-01-15T21:06:29;1.90;72.40
39103;DHT22;24847;48.218;16.414;2024-01-15T21:11:52;1.80;72.20
39103;DHT22;24847;48.218;16.414;2024-01-15T21:16:55;1.90;71.40
39103;DHT22;24847;48.218;16.414;2024-01-15T21:21:58;1.90;70.90
39103;DHT22;24847;48.218;16.414;2024-01-15T21:27:00;1.90;70.90
39103;DHT22;24847;48.218;16.414;2024-01-15T21:32:05;1.80;70.70
39103;DHT22;24847;48.218;16.414;2024-01-15T21:37:08;1.90;70.30
39103;DHT22;24847;48.218;16.414;2024-01-15T21:42:11;1.90;69.80
39103;DHT22;24847;48.218;16.414;2024-01-15T21:47:14;1.90;69.50
39103;DHT22;24847;48.218;16.414;2024-01-15T21:52:17;1.90;69.10
39103;DHT22;24847;48.218;16.414;2024-01-15T21:57:19;1.90;68.90
39103;DHT22;24847;48.218;16.414;2024-01-15T22:02:21;2.00;68.70
39103;DHT22;24847;48.218;16.414;2024-01-15T22:07:25;1.90;68.60
39103;DHT22;24847;48.218;16.414;2024-01-15T22:12:27;1.90;68.30
39103;DHT22;24847;48.218;16.414;2024-01-15T22:17:29;2.00;68.00
39103;DHT22;24847;48.218;16.414;2024-01-15T22:22:33;2.00;67.80
39103;DHT22;24847;48.218;16.414;2024-01-15T22:27:35;2.00;67.60
39103;DHT22;24847;48.218;16.414;2024-01-15T22:32:37;2.00;67.60
39103;DHT22;24847;48.218;16.414;2024-01-15T22:37:41;2.00;67.20
39103;DHT22;24847;48.218;16.414;2024-01-15T22:42:43;2.00;67.00
39103;DHT22;24847;48.218;16.414;2024-01-15T22:47:46;2.00;66.70
39103;DHT22;24847;48.218;16.414;2024-01-15T22:52:49;1.90;66.70
39103;DHT22;24847;48.218;16.414;2024-01-15T22:57:51;2.00;66.40
39103;DHT22;24847;48.218;16.414;2024-01-15T23:02:54;1.90;66.10
39103;DHT22;24847;48.218;16.414;2024-01-15T23:07:59;1.90;65.70
39103;DHT22;24847;48.218;16.414;2024-01-15T23:13:01;1.90;65.10
39103;DHT22;24847;48.218;16.414;2024-01-15T23:18:05;1.70;65.70
39103;DHT22;24847;48.218;16.414;2024-01-15T23:23:08;1.70;65.50
39103;DHT22;24847;48.218;16.414;2024-01-15T23:28:11;1.80;65.40
39103;DHT22;24847;48.218;16.414;2024-01-15T23:33:13;1.70;65.30
39103;DHT22;24847;48.218;16.414;2024-01-15T23:38:16;1.80;65.30
39103;DHT22;24847;48.218;16.414;2024-01-15T23:43:18;1.70;65.00
39103;DHT22;24847;48.218;16.414;2024-01-15T23:48:21;1.70;65.00
39103;DHT22;24847;48.218;16.414;2024-01-15T23:53:24;1.60;64.80
39103;DHT22;24847;48.218;16.414;2024-01-15T23:58:48;1.60;64.50
